Terminal Aerodrome Forecast
Issued by NWS Portland, OR

Current Version | Previous Version | Text Only | Print | Product List | Glossary On
Versions: 1 2 3 4 5 6 7 8 9 10 11 12 13 14 15 16 17 18 19 20 21
000
FTUS46 KPQR 181902 AAA
TAFEUG
TAF AMD
KEUG 181902Z 1819/1918 36011KT P6SM FEW018 BKN150
     FM190900 20007KT P6SM BKN120
     FM191500 18011KT P6SM -RA BKN050 OVC100=

USA.gov is the U.S. government's official web portal to all federal, state and local government web resources and services.